createdAt,value
2022-12-03T00:04:23.370Z,10.47
2022-12-03T00:09:26.797Z,10.50
2022-12-03T00:14:30.163Z,11.60
2022-12-03T00:19:34.853Z,11.67
2022-12-03T00:24:38.313Z,11.00
2022-12-03T00:29:41.604Z,11.57
2022-12-03T00:34:46.350Z,10.73
2022-12-03T00:39:49.663Z,10.90
2022-12-03T00:44:53.366Z,10.87
2022-12-03T00:49:59.633Z,11.10
2022-12-03T00:55:10.804Z,11.27
2022-12-03T01:00:15.598Z,11.53
2022-12-03T01:05:22.731Z,11.10
2022-12-03T01:10:37.642Z,11.80
2022-12-03T01:16:06.783Z,8.97
2022-12-03T01:21:11.587Z,10.60
2022-12-03T01:26:15.054Z,11.40
2022-12-03T01:31:36.127Z,11.50
2022-12-03T01:36:40.944Z,11.80
2022-12-03T01:41:54.508Z,11.07
2022-12-03T01:47:00.103Z,10.90
2022-12-03T01:52:13.057Z,11.53
2022-12-03T01:57:25.088Z,11.30
2022-12-03T02:02:30.866Z,11.50
2022-12-03T02:07:41.832Z,9.77
2022-12-03T02:12:59.146Z,12.50
2022-12-03T02:18:03.332Z,12.40
2022-12-03T02:23:14.735Z,11.40
2022-12-03T02:28:23.298Z,11.00
2022-12-03T02:33:29.609Z,11.70
2022-12-03T02:38:35.779Z,12.50
2022-12-03T02:43:51.488Z,10.87
2022-12-03T02:48:54.909Z,12.17
2022-12-03T02:53:58.570Z,11.77
2022-12-03T02:59:06.734Z,12.33
2022-12-03T03:04:10.153Z,12.83
2022-12-03T03:09:26.205Z,12.67
2022-12-03T03:14:53.810Z,10.07
2022-12-03T03:20:23.205Z,11.40
2022-12-03T03:25:26.473Z,13.57
2022-12-03T03:30:31.100Z,13.77
2022-12-03T03:35:43.323Z,13.83
2022-12-03T03:40:50.218Z,13.03
2022-12-03T03:45:55.671Z,13.80
2022-12-03T03:50:59.333Z,12.13
2022-12-03T03:56:03.033Z,13.13
2022-12-03T04:01:09.804Z,11.97
2022-12-03T04:06:13.218Z,11.77
2022-12-03T04:11:34.782Z,11.10
2022-12-03T04:16:39.598Z,12.00
2022-12-03T04:22:00.534Z,11.30
2022-12-03T04:27:20.915Z,10.43
2022-12-03T04:32:42.363Z,11.33
2022-12-03T04:37:45.783Z,11.43
2022-12-03T04:42:49.210Z,11.00
2022-12-03T04:47:53.862Z,10.10
2022-12-03T04:52:57.132Z,10.97
2022-12-03T04:58:00.522Z,8.53
2022-12-03T05:03:05.375Z,9.23
2022-12-03T05:08:08.869Z,9.03
2022-12-03T05:13:12.290Z,12.07
2022-12-03T05:18:18.569Z,12.73
2022-12-03T05:23:21.988Z,10.57
2022-12-03T05:28:25.219Z,10.47
2022-12-03T05:33:29.745Z,12.63
2022-12-03T05:38:33.254Z,10.07
2022-12-03T05:43:36.542Z,8.53
2022-12-03T05:48:41.115Z,9.87
2022-12-03T05:53:44.465Z,10.30
2022-12-03T05:58:47.831Z,9.40
2022-12-03T06:03:53.014Z,9.87
2022-12-03T06:08:56.548Z,9.10
2022-12-03T06:14:02.066Z,10.37
2022-12-03T06:19:07.949Z,10.40
2022-12-03T06:24:11.425Z,9.57
2022-12-03T06:29:14.736Z,10.47
2022-12-03T06:34:19.487Z,10.77
2022-12-03T06:39:23.169Z,10.93
2022-12-03T06:44:26.596Z,11.40
2022-12-03T06:49:31.321Z,11.27
2022-12-03T06:54:34.720Z,11.63
2022-12-03T06:59:55.238Z,12.20
2022-12-03T07:05:03.733Z,11.70
2022-12-03T07:10:11.246Z,12.80
2022-12-03T07:15:15.810Z,12.47
2022-12-03T07:20:21.155Z,17.33
2022-12-03T07:25:24.752Z,13.17
2022-12-03T07:30:30.105Z,12.47
2022-12-03T07:35:35.931Z,12.63
2022-12-03T07:40:40.307Z,12.63
2022-12-03T07:45:43.743Z,11.37
2022-12-03T07:50:49.640Z,11.13
2022-12-03T07:55:59.584Z,9.97
2022-12-03T08:01:26.610Z,9.30
2022-12-03T08:07:29.476Z,12.17
2022-12-03T08:12:41.135Z,11.63
2022-12-03T08:17:58.756Z,15.03
2022-12-03T08:23:11.217Z,12.10
2022-12-03T08:28:20.053Z,12.20
2022-12-03T08:33:36.573Z,12.23
2022-12-03T08:38:40.037Z,12.93
2022-12-03T08:43:59.557Z,11.63
2022-12-03T08:49:03.001Z,10.63
2022-12-03T08:54:21.080Z,11.20
2022-12-03T08:59:33.957Z,11.57
2022-12-03T09:04:39.795Z,12.37
2022-12-03T09:09:47.505Z,13.37
2022-12-03T09:14:52.522Z,12.03
2022-12-03T09:19:56.276Z,12.50
2022-12-03T09:24:59.481Z,10.30
2022-12-03T09:30:05.185Z,13.67
2022-12-03T09:35:10.028Z,12.27
2022-12-03T09:40:14.768Z,10.93
2022-12-03T09:45:19.818Z,10.73
2022-12-03T09:50:26.473Z,11.30
2022-12-03T09:55:36.117Z,9.27
2022-12-03T10:00:42.678Z,10.20
2022-12-03T10:05:48.947Z,9.97
2022-12-03T10:10:56.683Z,8.73
2022-12-03T10:16:11.681Z,17.13
2022-12-03T10:52:54.311Z,8.55
2022-12-03T10:57:58.399Z,7.85
2022-12-03T11:03:01.869Z,8.18
2022-12-03T11:08:20.756Z,9.63
2022-12-03T11:13:47.781Z,8.30
2022-12-03T11:19:03.443Z,9.47
2022-12-03T11:24:22.662Z,9.67
2022-12-03T11:29:57.112Z,7.67
2022-12-03T11:35:00.472Z,7.00
2022-12-03T11:40:09.728Z,9.20
2022-12-03T11:45:24.439Z,7.83
2022-12-03T12:35:33.034Z,6.88
2022-12-03T12:40:38.726Z,5.93
2022-12-03T12:45:43.924Z,6.37
2022-12-03T12:50:52.538Z,6.23
2022-12-03T12:55:58.404Z,5.83
2022-12-03T13:01:07.006Z,6.27
2022-12-03T13:06:16.178Z,6.57
2022-12-03T13:11:35.556Z,6.30
2022-12-03T13:16:39.850Z,8.43
2022-12-03T13:21:46.127Z,5.93
2022-12-03T13:26:49.445Z,6.57
2022-12-03T13:31:54.875Z,7.10
2022-12-03T13:37:01.089Z,6.73
2022-12-03T13:42:35.726Z,6.00
2022-12-03T13:47:39.061Z,6.53
2022-12-03T13:52:43.823Z,6.67
2022-12-03T13:57:48.050Z,7.23
2022-12-03T14:02:51.582Z,7.17
2022-12-03T14:07:58.270Z,7.83
2022-12-03T14:13:01.634Z,6.30
2022-12-03T14:18:05.347Z,7.03
2022-12-03T14:23:10.185Z,6.87
2022-12-03T14:28:13.624Z,8.23
2022-12-03T14:33:17.002Z,7.90
2022-12-03T14:38:22.121Z,6.93
2022-12-03T14:43:26.439Z,7.50
2022-12-03T14:48:29.839Z,9.10
2022-12-03T14:53:37.608Z,7.60
2022-12-03T14:58:41.052Z,7.50
2022-12-03T15:03:44.457Z,10.03
2022-12-03T15:08:49.277Z,8.50
2022-12-03T15:13:53.719Z,8.43
2022-12-03T15:18:57.125Z,8.07
2022-12-03T15:29:29.404Z,7.57
2022-12-03T15:34:32.881Z,18.83
2022-12-03T15:39:52.700Z,9.13
2022-12-03T15:44:55.984Z,7.10
2022-12-03T15:49:59.270Z,6.43
2022-12-03T15:55:07.911Z,5.87
2022-12-03T16:00:15.108Z,8.90
2022-12-03T16:05:18.741Z,8.70
2022-12-03T16:10:23.481Z,6.33
2022-12-03T16:15:27.521Z,7.87
2022-12-03T16:20:31.429Z,4.80
2022-12-03T16:25:36.103Z,5.20
2022-12-03T16:30:39.654Z,5.10
2022-12-03T16:35:43.105Z,6.07
2022-12-03T16:40:47.886Z,5.80
2022-12-03T16:46:20.398Z,6.30
2022-12-03T16:51:25.542Z,6.93
2022-12-03T16:56:30.325Z,6.33
2022-12-03T17:01:34.858Z,7.03
2022-12-03T17:06:38.670Z,6.67
2022-12-03T17:11:43.359Z,7.23
2022-12-03T17:16:46.773Z,9.07
2022-12-03T17:21:50.105Z,5.93
2022-12-03T17:26:55.090Z,6.77
2022-12-03T17:31:58.508Z,6.47
2022-12-03T17:37:03.310Z,6.47
2022-12-03T17:42:12.026Z,7.40
2022-12-03T17:47:16.498Z,6.50
2022-12-03T17:52:19.921Z,6.47
2022-12-03T17:57:24.861Z,6.13
2022-12-03T18:02:28.194Z,6.37
2022-12-03T18:07:31.728Z,6.27
2022-12-03T18:12:36.853Z,6.23
2022-12-03T18:17:41.290Z,6.47
2022-12-03T18:22:45.580Z,6.90
2022-12-03T18:27:50.307Z,8.13
2022-12-03T18:32:53.645Z,6.67
2022-12-03T18:37:57.027Z,7.53
2022-12-03T18:43:01.781Z,7.10
2022-12-03T18:48:15.633Z,8.13
2022-12-03T18:53:20.614Z,8.53
2022-12-03T18:58:26.351Z,7.23
2022-12-03T19:03:29.906Z,7.10
2022-12-03T19:08:33.328Z,8.23
2022-12-03T19:13:38.161Z,8.33
2022-12-03T19:18:41.798Z,8.03
2022-12-03T19:24:09.894Z,8.53
2022-12-03T19:29:10.818Z,9.03
2022-12-03T19:34:14.417Z,10.90
2022-12-03T19:39:17.727Z,9.90
2022-12-03T19:44:22.640Z,9.67
2022-12-03T19:49:27.733Z,9.13
2022-12-03T19:54:31.040Z,10.43
2022-12-03T19:59:36.763Z,10.63
2022-12-03T20:04:40.265Z,9.87
2022-12-03T20:09:43.681Z,10.97
2022-12-03T20:14:50.005Z,10.93
2022-12-03T20:19:53.669Z,12.40
2022-12-03T20:24:57.323Z,11.13
2022-12-03T20:30:02.198Z,11.47
2022-12-03T20:35:06.445Z,11.30
2022-12-03T20:40:10.849Z,11.77
2022-12-03T20:50:42.822Z,10.33
2022-12-03T20:55:46.165Z,11.23
2022-12-03T21:00:51.083Z,10.73
2022-12-03T21:06:00.477Z,10.87
2022-12-03T21:11:06.363Z,10.77
2022-12-03T21:16:13.319Z,9.73
2022-12-03T21:21:18.360Z,10.50
2022-12-03T21:26:23.067Z,12.17
2022-12-03T21:31:30.192Z,11.40
2022-12-03T21:36:33.966Z,12.27
2022-12-03T21:41:37.621Z,10.93
2022-12-03T21:47:11.016Z,12.53
2022-12-03T21:52:06.643Z,10.20
2022-12-03T21:57:10.133Z,10.80
2022-12-03T22:02:15.497Z,9.20
2022-12-03T22:07:19.992Z,9.80
2022-12-03T22:17:52.896Z,9.27
2022-12-03T22:22:56.351Z,9.63
2022-12-03T22:27:59.704Z,8.50
2022-12-03T22:33:04.796Z,9.20
2022-12-03T22:38:09.140Z,8.63
2022-12-03T22:43:12.471Z,8.67
2022-12-03T22:48:17.346Z,9.47
2022-12-03T22:53:21.536Z,9.50
2022-12-03T22:58:25.124Z,9.37
2022-12-03T23:03:30.172Z,10.17
2022-12-03T23:08:33.538Z,9.47
2022-12-03T23:13:37.353Z,9.90
2022-12-03T23:18:41.981Z,10.07
2022-12-03T23:23:47.410Z,10.07
2022-12-03T23:28:51.690Z,11.77
2022-12-03T23:33:57.146Z,9.77
2022-12-03T23:39:00.684Z,10.67
2022-12-03T23:44:04.152Z,11.50
2022-12-03T23:49:09.233Z,11.50
2022-12-03T23:54:13.310Z,11.27
2022-12-03T23:59:16.760Z,9.53
